Weather reports worldwide

Advertisment
Ploudalmezeau, France (7101): temperature & dewpoint: 19.09.2018 12:00:00 - 25.09.2018 12:00:00 (CEST)Ploudalmezeau, France (7101): wind speed: 19.09.2018 12:00:00 - 25.09.2018 12:00:00 (CEST)Ploudalmezeau, France (7101): wind direction: 19.09.2018 12:00:00 - 25.09.2018 12:00:00 (CEST)Ploudalmezeau, France (7101): reduced air pressure: 19.09.2018 12:00:00 - 25.09.2018 12:00:00 (CEST)Ploudalmezeau, France (7101): precipitation: 19.09.2018 12:00:00 - 25.09.2018 12:00:00 (CEST)
Date & Time tt [°C] td [°C] ff [km/h] ff [kn] dd ppp [hPa] rr [mm]
25.09.2018 12:00:00 - - - - - - -
25.09.2018 11:00:00 12,8 7,7 10 5 ESE 1037,2 0,0
25.09.2018 10:00:00 10,4 6,9 10 5 ESE 1037,2 0,0
25.09.2018 09:00:00 7,9 5,5 9 5 SE 1036,6 0,0
25.09.2018 08:00:00 6,8 4,9 10 5 SE 1036,3 0,0
25.09.2018 07:00:00 6,2 5,0 9 5 ESE 1036,4 0,0
25.09.2018 06:00:00 7,0 5,5 8 4 SE 1036,5 0,0
25.09.2018 05:00:00 7,1 5,6 9 5 ESE 1036,7 0,0
25.09.2018 04:00:00 8,1 6,2 11 6 ESE 1037,0 0,0
25.09.2018 03:00:00 7,0 6,1 10 5 ESE 1037,3 0,0
25.09.2018 02:00:00 7,3 5,4 8 4 E 1037,4 0,0
25.09.2018 01:00:00 7,9 5,9 10 5 ESE 1037,7 0,0
25.09.2018 00:00:00 8,3 6,3 11 6 E 1037,6 0,0
24.09.2018 23:00:00 8,7 6,3 8 5 E 1037,8 0,0
24.09.2018 22:00:00 9,8 6,7 8 5 E 1037,7 0,0
24.09.2018 21:00:00 11,1 7,6 10 5 E 1037,7 0,0
24.09.2018 20:00:00 12,5 8,0 11 6 ENE 1037,4 0,0
24.09.2018 19:00:00 14,0 7,3 21 11 ENE 1037,2 0,0
24.09.2018 18:00:00 14,8 7,3 19 10 ENE 1037,0 0,0
24.09.2018 17:00:00 15,1 8,1 23 12 NE 1037,4 0,0
24.09.2018 16:00:00 15,1 8,1 22 12 NE 1037,8 0,0
24.09.2018 15:00:00 15,3 8,3 24 13 NE 1038,0 0,0
24.09.2018 14:00:00 15,0 7,8 19 11 ENE 1038,4 0,0
24.09.2018 13:00:00 15,3 8,3 20 11 ENE 1038,5 0,0
24.09.2018 12:00:00 15,0 8,2 19 10 ENE 1038,5 0,0
24.09.2018 11:00:00 14,4 8,3 17 9 NE 1038,5 0,0
24.09.2018 10:00:00 13,8 8,2 11 6 NE 1038,1 0,0
24.09.2018 09:00:00 11,2 8,1 7 4 ENE 1037,4 0,0
24.09.2018 08:00:00 9,2 6,5 7 4 ENE 1036,7 0,0
24.09.2018 07:00:00 9,7 6,2 8 5 ENE 1036,1 0,0
24.09.2018 06:00:00 10,8 6,5 10 6 ENE 1036,2 0,0
24.09.2018 05:00:00 11,0 6,3 11 6 ENE 1035,9 0,0
24.09.2018 04:00:00 11,5 5,4 16 8 ENE 1035,7 0,0
24.09.2018 03:00:00 11,9 5,1 17 9 NE 1035,4 0,0
24.09.2018 02:00:00 11,9 5,3 18 10 NE 1034,7 0,0
24.09.2018 01:00:00 11,9 5,1 16 9 NE 1034,4 0,0
24.09.2018 00:00:00 12,1 5,9 17 9 NE 1033,7 0,0
23.09.2018 23:00:00 12,6 6,6 19 10 NNE 1032,9 0,0
23.09.2018 22:00:00 12,4 6,4 22 12 NNE 1032,2 0,0
23.09.2018 21:00:00 12,4 6,0 23 12 NNE 1031,0 0,0
23.09.2018 20:00:00 12,7 6,9 20 11 NNE 1029,8 0,0
23.09.2018 19:00:00 13,8 9,2 18 10 NNE 1028,6 0,0
23.09.2018 18:00:00 14,3 8,7 22 12 NE 1027,6 0,0
23.09.2018 17:00:00 14,2 9,0 29 16 NNE 1026,3 0,0
23.09.2018 16:00:00 14,5 9,5 29 16 NNE 1025,3 0,0
23.09.2018 15:00:00 14,4 11,0 30 16 NNE 1024,0 0,0
23.09.2018 14:00:00 14,3 11,4 28 15 NNE 1022,2 0,0
23.09.2018 13:00:00 14,9 12,9 23 12 NNE 1020,8 0,0
23.09.2018 12:00:00 13,7 13,2 21 11 N 1019,1 0,0
23.09.2018 11:00:00 13,6 13,3 13 7 N 1017,4 0,6
23.09.2018 10:00:00 17,1 16,9 25 13 W 1015,1 0,0
23.09.2018 09:00:00 17,1 16,9 26 14 W 1014,6 0,0
23.09.2018 08:00:00 17,2 17,0 26 14 W 1014,2 0,0
23.09.2018 07:00:00 17,3 17,1 29 15 W 1014,7 0,0
23.09.2018 06:00:00 17,4 17,2 27 15 WSW 1014,7 0,2
23.09.2018 05:00:00 17,4 17,2 25 13 WSW 1014,8 0,0
23.09.2018 04:00:00 17,3 17,1 27 15 W 1015,4 0,0
23.09.2018 03:00:00 17,4 17,2 27 15 W 1015,7 0,2
23.09.2018 02:00:00 17,4 17,2 27 15 WSW 1015,7 0,0
23.09.2018 01:00:00 17,5 17,3 29 16 WSW 1015,7 0,2
23.09.2018 00:00:00 17,6 17,4 28 15 WSW 1015,4 0,0
22.09.2018 23:00:00 17,7 17,5 30 16 WSW 1015,4 0,0
22.09.2018 22:00:00 17,6 17,4 26 14 WSW 1015,1 0,0
22.09.2018 21:00:00 17,7 17,5 27 14 WSW 1014,8 0,0
22.09.2018 20:00:00 17,8 17,5 29 16 WSW 1014,5 0,0
22.09.2018 19:00:00 18,0 17,7 32 17 WSW 1014,1 0,0
22.09.2018 18:00:00 18,1 17,8 32 17 WSW 1013,8 0,0
22.09.2018 17:00:00 18,2 17,9 33 18 WSW 1013,6 0,0
22.09.2018 16:00:00 18,1 17,8 34 18 WSW 1013,7 0,0
22.09.2018 15:00:00 18,0 17,7 33 18 WSW 1013,6 0,4
22.09.2018 14:00:00 17,6 17,3 24 13 SW 1013,8 0,8
22.09.2018 13:00:00 15,5 14,9 29 16 S 1014,6 0,6
22.09.2018 12:00:00 14,7 13,7 32 17 S 1015,4 0,4
22.09.2018 11:00:00 14,1 13,3 22 12 S 1017,2 0,2
22.09.2018 10:00:00 13,0 12,2 13 7 SSE 1018,4 1,2
22.09.2018 09:00:00 13,0 12,1 9 5 S 1019,6 0,6
22.09.2018 08:00:00 13,5 10,8 9 5 S 1019,8 0,0
22.09.2018 07:00:00 13,6 10,8 9 5 S 1020,3 0,0
22.09.2018 06:00:00 13,5 10,8 10 5 S 1020,8 0,0
22.09.2018 05:00:00 13,6 11,3 9 5 SSW 1021,8 0,0
22.09.2018 04:00:00 13,3 9,9 8 4 SSW 1022,4 0,0
22.09.2018 03:00:00 13,3 9,7 7 4 SSW 1022,5 0,0
22.09.2018 02:00:00 13,1 10,1 6 3 SSW 1022,7 0,0
22.09.2018 01:00:00 12,8 9,8 6 3 SSW 1023,3 0,0
22.09.2018 00:00:00 13,1 9,9 5 3 SW 1023,1 0,0
21.09.2018 23:00:00 13,1 9,7 6 3 SW 1023,0 0,0
21.09.2018 22:00:00 13,7 9,5 11 6 W 1022,6 0,0
21.09.2018 21:00:00 13,3 9,9 7 4 WSW 1022,1 0,0
21.09.2018 20:00:00 13,5 9,9 7 4 WSW 1021,8 0,0
21.09.2018 19:00:00 14,8 9,8 15 8 W 1021,5 0,0
21.09.2018 18:00:00 15,9 9,1 21 12 WNW 1021,0 0,0
21.09.2018 17:00:00 16,4 7,9 26 14 WNW 1020,7 0,0
21.09.2018 16:00:00 16,8 9,2 24 13 WNW 1020,5 0,0
21.09.2018 15:00:00 16,3 9,9 19 10 NW 1020,1 0,0
21.09.2018 14:00:00 16,2 9,4 23 12 WNW 1019,6 0,0
21.09.2018 13:00:00 15,1 8,8 22 12 WNW 1019,0 0,0
21.09.2018 12:00:00 14,9 10,5 15 8 WNW 1018,2 0,0
21.09.2018 11:00:00 15,2 8,2 21 11 WNW 1017,2 0,0
21.09.2018 10:00:00 14,2 7,9 18 10 WNW 1016,3 0,0
21.09.2018 09:00:00 13,1 8,2 17 9 NW 1015,5 0,0
21.09.2018 08:00:00 12,7 8,8 20 11 NW 1014,2 0,0
21.09.2018 07:00:00 12,8 8,5 19 11 NW 1013,1 0,0
21.09.2018 06:00:00 13,3 9,0 23 12 NW 1012,2 0,0
21.09.2018 05:00:00 13,5 9,5 21 12 NW 1011,3 0,0
21.09.2018 04:00:00 14,1 10,5 29 16 WNW 1010,5 0,0
21.09.2018 03:00:00 14,8 10,4 34 18 WNW 1009,4 0,0
21.09.2018 02:00:00 14,9 12,0 31 17 WNW 1008,3 0,0
21.09.2018 01:00:00 15,4 13,2 31 17 WNW 1007,2 2,2
21.09.2018 00:00:00 17,8 17,3 32 18 SW 1005,0 3,8
20.09.2018 23:00:00 17,8 17,2 31 17 SW 1006,1 3,4
20.09.2018 22:00:00 18,0 17,0 30 16 SW 1007,2 1,2
20.09.2018 21:00:00 18,4 16,7 31 17 SW 1007,8 0,0
20.09.2018 20:00:00 18,5 16,7 30 16 SW 1008,7 0,0
20.09.2018 19:00:00 18,9 16,7 31 17 SW 1009,5 0,0
20.09.2018 18:00:00 19,2 17,0 32 18 SW 1010,1 0,0
20.09.2018 17:00:00 19,7 17,1 31 17 SW 1011,0 0,0
20.09.2018 16:00:00 20,1 16,9 29 16 SW 1012,0 0,0
20.09.2018 15:00:00 20,2 16,8 32 18 SW 1012,6 0,0
20.09.2018 14:00:00 20,2 16,8 33 18 SW 1013,1 0,0
20.09.2018 13:00:00 20,4 16,8 27 15 SW 1013,4 0,0
20.09.2018 12:00:00 19,1 16,5 25 14 SW 1014,3 0,0
20.09.2018 11:00:00 19,3 16,5 23 12 SW 1014,5 0,0
20.09.2018 10:00:00 18,1 16,4 23 13 SW 1014,9 0,0
20.09.2018 09:00:00 17,6 16,5 17 9 SW 1015,2 0,0
20.09.2018 08:00:00 17,0 16,0 16 9 SSW 1015,1 0,0
20.09.2018 07:00:00 17,0 15,9 16 8 SW 1015,2 0,0
20.09.2018 06:00:00 17,2 16,1 19 10 SW 1015,6 0,0
20.09.2018 05:00:00 17,1 16,0 20 11 SW 1015,6 0,0
20.09.2018 04:00:00 17,0 15,9 20 11 SW 1016,0 0,0
20.09.2018 03:00:00 17,1 16,1 20 11 SW 1016,3 0,0
20.09.2018 02:00:00 17,0 16,0 19 11 SW 1016,8 0,0
20.09.2018 01:00:00 16,7 15,9 14 7 SW 1016,8 0,0
20.09.2018 00:00:00 16,6 15,5 13 7 SSW 1017,0 0,0
19.09.2018 23:00:00 16,5 15,5 12 6 SW 1017,5 0,0
19.09.2018 22:00:00 16,7 15,4 11 6 SW 1017,5 0,0
19.09.2018 21:00:00 17,1 15,8 12 6 SW 1017,4 0,0
19.09.2018 20:00:00 18,0 15,8 15 8 SW 1017,4 0,0
19.09.2018 19:00:00 19,6 16,2 20 11 WSW 1017,5 0,0
19.09.2018 18:00:00 19,8 16,8 28 15 WSW 1017,2 0,0
19.09.2018 17:00:00 20,1 16,5 31 17 WSW 1016,9 0,0
19.09.2018 16:00:00 21,0 17,0 29 16 WSW 1016,9 0,0
19.09.2018 15:00:00 20,8 17,2 30 16 WSW 1017,0 0,0
19.09.2018 14:00:00 20,6 16,8 29 15 SW 1016,8 0,0
19.09.2018 13:00:00 20,7 17,1 31 17 SW 1016,6 0,0
19.09.2018 12:00:00 19,6 16,8 27 14 SW 1016,4 0,0

tt = temperature
td = dewpoint
ff = wind speed
dd = wind direction
ppp = reduced air pressure
rr = precipitation

Next stations